ナイロビ の空港の天気 - METARとTAF

ジョモ・ケニヤッタ国際空港 ( HKJK / NBO ) - ケニア ナイロビ
飛行場実況気象(Metar)
観測時間05/28 10:00 EAT (05/28 07:00 UTC)
風向・風速不定 1m/s
視程10km以上
天気現象
全天の8割程度の雲 雲底高度 640m
気温21℃
湿度73%
気圧1026hPa
METARHKJK 280700Z VRB02KT 9999 BKN021 21/16 Q1026 NOSIG
過去の天気等 Google飛行場航空写真 Wunderground天気予報

過去48時間のMETAR

飛行場予報(TAF)
発表時間: 5/28 08:00 EAT (5/28 05:00 UTC)
予報対象時間: 28日9時 EAT ~ 29日15時 EAT
風向・風速南南東 5m/s
視程10km以上
全天の4割程度の雲 雲底高度 760m
全天の8割程度の雲 雲底高度 730m
29日3時 EAT ~ 29日9時 EAT に一時的に
風向・風速北北東 3m/s
視程10km以上
少しの雲 雲底高度 240m
全天の4割程度の雲 雲底高度 490m
29日11時 EAT ~ 29日14時 EAT に徐々に
風向・風速南南東 5m/s
全天の4割程度の雲 雲底高度 760m
TAF HKJK 280500Z 2806/2912 16010KT 9999 SCT025 BKN024 2820/2823 VRB04KT CAVOK
TEMPO 2900/2906 03005KT 9999 FEW008 SCT016
BECMG 2908/2911 16010KT SCT025